sensor_id;sensor_type;location;lat;lon;timestamp;temperature;humidity
2839;DHT22;1427;48.510;9.060;2022-08-01T00:01:15;20.40;93.50
2839;DHT22;1427;48.510;9.060;2022-08-01T00:03:43;20.50;93.50
2839;DHT22;1427;48.510;9.060;2022-08-01T00:06:13;20.10;93.60
2839;DHT22;1427;48.510;9.060;2022-08-01T00:08:41;20.00;94.00
2839;DHT22;1427;48.510;9.060;2022-08-01T00:11:09;20.00;94.00
2839;DHT22;1427;48.510;9.060;2022-08-01T00:13:37;20.00;94.10
2839;DHT22;1427;48.510;9.060;2022-08-01T00:16:05;19.90;94.20
2839;DHT22;1427;48.510;9.060;2022-08-01T00:18:33;19.90;94.30
2839;DHT22;1427;48.510;9.060;2022-08-01T00:21:02;20.00;94.40
2839;DHT22;1427;48.510;9.060;2022-08-01T00:23:32;20.00;94.60
2839;DHT22;1427;48.510;9.060;2022-08-01T00:26:00;20.00;94.70
2839;DHT22;1427;48.510;9.060;2022-08-01T00:28:28;20.00;94.60
2839;DHT22;1427;48.510;9.060;2022-08-01T00:30:56;20.00;94.50
2839;DHT22;1427;48.510;9.060;2022-08-01T00:33:24;19.90;94.60
2839;DHT22;1427;48.510;9.060;2022-08-01T00:35:52;19.70;94.90
2839;DHT22;1427;48.510;9.060;2022-08-01T00:38:20;19.70;95.20
2839;DHT22;1427;48.510;9.060;2022-08-01T00:40:50;19.50;95.40
2839;DHT22;1427;48.510;9.060;2022-08-01T00:43:18;19.40;95.70
2839;DHT22;1427;48.510;9.060;2022-08-01T00:45:46;19.50;95.90
2839;DHT22;1427;48.510;9.060;2022-08-01T00:48:14;19.40;96.10
2839;DHT22;1427;48.510;9.060;2022-08-01T00:50:42;19.20;96.30
2839;DHT22;1427;48.510;9.060;2022-08-01T00:53:10;19.20;96.50
2839;DHT22;1427;48.510;9.060;2022-08-01T00:55:44;19.20;96.70
2839;DHT22;1427;48.510;9.060;2022-08-01T00:58:14;19.10;97.00
2839;DHT22;1427;48.510;9.060;2022-08-01T01:00:43;19.20;97.10
2839;DHT22;1427;48.510;9.060;2022-08-01T01:03:21;19.20;97.20
2839;DHT22;1427;48.510;9.060;2022-08-01T01:06:30;19.10;97.30
2839;DHT22;1427;48.510;9.060;2022-08-01T01:09:10;19.00;97.40
2839;DHT22;1427;48.510;9.060;2022-08-01T01:11:54;19.00;97.60
2839;DHT22;1427;48.510;9.060;2022-08-01T01:14:31;19.00;97.80
2839;DHT22;1427;48.510;9.060;2022-08-01T01:17:02;18.90;98.00
2839;DHT22;1427;48.510;9.060;2022-08-01T01:19:33;18.80;98.10
2839;DHT22;1427;48.510;9.060;2022-08-01T01:22:25;18.90;98.20
2839;DHT22;1427;48.510;9.060;2022-08-01T01:25:17;18.90;98.30
2839;DHT22;1427;48.510;9.060;2022-08-01T01:28:00;18.70;98.50
2839;DHT22;1427;48.510;9.060;2022-08-01T01:30:31;18.60;98.80
2839;DHT22;1427;48.510;9.060;2022-08-01T01:33:03;18.40;99.20
2839;DHT22;1427;48.510;9.060;2022-08-01T01:35:36;18.40;99.40
2839;DHT22;1427;48.510;9.060;2022-08-01T01:38:10;18.50;99.30
2839;DHT22;1427;48.510;9.060;2022-08-01T01:40:39;18.40;99.50
2839;DHT22;1427;48.510;9.060;2022-08-01T01:43:10;18.40;99.60
2839;DHT22;1427;48.510;9.060;2022-08-01T01:45:41;18.40;99.70
2839;DHT22;1427;48.510;9.060;2022-08-01T01:48:10;18.50;99.80
2839;DHT22;1427;48.510;9.060;2022-08-01T01:50:42;18.40;99.90
2839;DHT22;1427;48.510;9.060;2022-08-01T01:53:12;18.40;99.90
2839;DHT22;1427;48.510;9.060;2022-08-01T01:55:43;18.30;99.90
2839;DHT22;1427;48.510;9.060;2022-08-01T01:58:16;18.20;99.90
2839;DHT22;1427;48.510;9.060;2022-08-01T02:00:48;18.10;99.90
2839;DHT22;1427;48.510;9.060;2022-08-01T02:03:18;18.10;99.90
2839;DHT22;1427;48.510;9.060;2022-08-01T02:05:47;18.00;99.90
2839;DHT22;1427;48.510;9.060;2022-08-01T02:08:16;18.10;99.90
2839;DHT22;1427;48.510;9.060;2022-08-01T02:10:45;18.10;99.90
2839;DHT22;1427;48.510;9.060;2022-08-01T02:13:28;18.10;99.90
2839;DHT22;1427;48.510;9.060;2022-08-01T02:15:58;18.10;99.90
2839;DHT22;1427;48.510;9.060;2022-08-01T02:18:26;18.00;99.90
2839;DHT22;1427;48.510;9.060;2022-08-01T02:20:55;18.00;99.90
2839;DHT22;1427;48.510;9.060;2022-08-01T02:23:28;18.00;99.90
2839;DHT22;1427;48.510;9.060;2022-08-01T02:25:58;17.90;99.90
2839;DHT22;1427;48.510;9.060;2022-08-01T02:28:43;17.80;99.90
2839;DHT22;1427;48.510;9.060;2022-08-01T02:31:17;17.70;99.90
2839;DHT22;1427;48.510;9.060;2022-08-01T02:33:53;17.70;99.90
2839;DHT22;1427;48.510;9.060;2022-08-01T02:36:25;17.70;99.90
2839;DHT22;1427;48.510;9.060;2022-08-01T02:39:00;17.80;99.90
2839;DHT22;1427;48.510;9.060;2022-08-01T02:41:30;17.70;99.90
2839;DHT22;1427;48.510;9.060;2022-08-01T02:44:04;17.70;99.90
2839;DHT22;1427;48.510;9.060;2022-08-01T02:46:37;17.60;99.90
2839;DHT22;1427;48.510;9.060;2022-08-01T02:49:08;17.60;99.90
2839;DHT22;1427;48.510;9.060;2022-08-01T02:51:39;17.70;99.90
2839;DHT22;1427;48.510;9.060;2022-08-01T02:54:08;17.60;99.90
2839;DHT22;1427;48.510;9.060;2022-08-01T02:56:38;17.50;99.90
2839;DHT22;1427;48.510;9.060;2022-08-01T02:59:12;17.50;99.90
2839;DHT22;1427;48.510;9.060;2022-08-01T03:01:42;17.50;99.90
2839;DHT22;1427;48.510;9.060;2022-08-01T03:04:14;17.50;99.90
2839;DHT22;1427;48.510;9.060;2022-08-01T03:06:42;17.40;99.90
2839;DHT22;1427;48.510;9.060;2022-08-01T03:09:11;17.40;99.90
2839;DHT22;1427;48.510;9.060;2022-08-01T03:11:43;17.50;99.90
2839;DHT22;1427;48.510;9.060;2022-08-01T03:14:12;17.40;99.90
2839;DHT22;1427;48.510;9.060;2022-08-01T03:16:44;17.40;99.90
2839;DHT22;1427;48.510;9.060;2022-08-01T03:19:13;17.40;99.90
2839;DHT22;1427;48.510;9.060;2022-08-01T03:21:44;17.40;99.90
2839;DHT22;1427;48.510;9.060;2022-08-01T03:24:12;17.40;99.90
2839;DHT22;1427;48.510;9.060;2022-08-01T03:26:42;17.30;99.90
2839;DHT22;1427;48.510;9.060;2022-08-01T03:29:16;17.30;99.90
2839;DHT22;1427;48.510;9.060;2022-08-01T03:31:48;17.20;99.90
2839;DHT22;1427;48.510;9.060;2022-08-01T03:34:16;17.20;99.90
2839;DHT22;1427;48.510;9.060;2022-08-01T03:36:49;17.20;99.90
2839;DHT22;1427;48.510;9.060;2022-08-01T03:39:22;17.20;99.90
2839;DHT22;1427;48.510;9.060;2022-08-01T03:41:55;17.10;99.90
2839;DHT22;1427;48.510;9.060;2022-08-01T03:44:27;17.20;99.90
2839;DHT22;1427;48.510;9.060;2022-08-01T03:47:00;17.20;99.90
2839;DHT22;1427;48.510;9.060;2022-08-01T03:49:31;17.20;99.90
2839;DHT22;1427;48.510;9.060;2022-08-01T03:52:02;17.10;99.90
2839;DHT22;1427;48.510;9.060;2022-08-01T03:54:34;17.10;99.90
2839;DHT22;1427;48.510;9.060;2022-08-01T03:57:04;17.10;99.90
2839;DHT22;1427;48.510;9.060;2022-08-01T03:59:35;17.20;99.90
2839;DHT22;1427;48.510;9.060;2022-08-01T04:02:06;17.10;99.90
2839;DHT22;1427;48.510;9.060;2022-08-01T04:04:35;17.10;99.90
2839;DHT22;1427;48.510;9.060;2022-08-01T04:07:03;17.00;99.90
2839;DHT22;1427;48.510;9.060;2022-08-01T04:09:33;16.90;99.90
2839;DHT22;1427;48.510;9.060;2022-08-01T04:12:02;16.90;99.90
2839;DHT22;1427;48.510;9.060;2022-08-01T04:14:38;16.90;99.90
2839;DHT22;1427;48.510;9.060;2022-08-01T04:17:07;16.80;99.90
2839;DHT22;1427;48.510;9.060;2022-08-01T04:19:35;16.80;99.90
2839;DHT22;1427;48.510;9.060;2022-08-01T04:22:04;16.80;99.90
2839;DHT22;1427;48.510;9.060;2022-08-01T04:24:35;16.80;99.90
2839;DHT22;1427;48.510;9.060;2022-08-01T04:27:09;16.80;99.90
2839;DHT22;1427;48.510;9.060;2022-08-01T04:29:40;16.80;99.90
2839;DHT22;1427;48.510;9.060;2022-08-01T04:32:12;16.90;99.90
2839;DHT22;1427;48.510;9.060;2022-08-01T04:34:43;17.00;99.90
2839;DHT22;1427;48.510;9.060;2022-08-01T04:37:15;16.80;99.90
2839;DHT22;1427;48.510;9.060;2022-08-01T04:39:45;17.00;99.90
2839;DHT22;1427;48.510;9.060;2022-08-01T04:42:16;16.90;99.90
2839;DHT22;1427;48.510;9.060;2022-08-01T04:44:56;17.00;99.90
2839;DHT22;1427;48.510;9.060;2022-08-01T04:47:27;17.00;99.90
2839;DHT22;1427;48.510;9.060;2022-08-01T04:49:55;17.00;99.90
2839;DHT22;1427;48.510;9.060;2022-08-01T04:52:32;16.90;99.90
2839;DHT22;1427;48.510;9.060;2022-08-01T04:55:01;17.10;99.90
2839;DHT22;1427;48.510;9.060;2022-08-01T04:57:29;17.10;99.90
2839;DHT22;1427;48.510;9.060;2022-08-01T04:59:57;17.10;99.90
2839;DHT22;1427;48.510;9.060;2022-08-01T05:02:27;17.10;99.90
2839;DHT22;1427;48.510;9.060;2022-08-01T05:04:56;17.00;99.90
2839;DHT22;1427;48.510;9.060;2022-08-01T05:07:24;17.10;99.90
2839;DHT22;1427;48.510;9.060;2022-08-01T05:09:52;17.20;99.90
2839;DHT22;1427;48.510;9.060;2022-08-01T05:12:20;17.30;99.90
2839;DHT22;1427;48.510;9.060;2022-08-01T05:14:48;17.50;99.90
2839;DHT22;1427;48.510;9.060;2022-08-01T05:17:16;17.70;99.90
2839;DHT22;1427;48.510;9.060;2022-08-01T05:19:46;17.90;99.90
2839;DHT22;1427;48.510;9.060;2022-08-01T05:22:14;18.10;99.90
2839;DHT22;1427;48.510;9.060;2022-08-01T05:24:42;18.30;99.90
2839;DHT22;1427;48.510;9.060;2022-08-01T05:27:11;18.60;99.90
2839;DHT22;1427;48.510;9.060;2022-08-01T05:29:42;18.80;99.90
2839;DHT22;1427;48.510;9.060;2022-08-01T05:32:11;18.90;99.90
2839;DHT22;1427;48.510;9.060;2022-08-01T05:34:39;18.90;99.90
2839;DHT22;1427;48.510;9.060;2022-08-01T05:37:08;18.80;99.90
2839;DHT22;1427;48.510;9.060;2022-08-01T05:39:37;18.80;99.90
2839;DHT22;1427;48.510;9.060;2022-08-01T05:42:05;18.80;99.90
2839;DHT22;1427;48.510;9.060;2022-08-01T05:44:34;18.80;99.90
2839;DHT22;1427;48.510;9.060;2022-08-01T05:47:02;18.90;99.90
2839;DHT22;1427;48.510;9.060;2022-08-01T05:49:30;18.90;99.90
2839;DHT22;1427;48.510;9.060;2022-08-01T05:51:58;19.20;99.90
2839;DHT22;1427;48.510;9.060;2022-08-01T05:54:29;19.80;99.90
2839;DHT22;1427;48.510;9.060;2022-08-01T05:56:57;20.20;99.90
2839;DHT22;1427;48.510;9.060;2022-08-01T05:59:28;20.50;99.90
2839;DHT22;1427;48.510;9.060;2022-08-01T06:01:56;20.60;99.90
2839;DHT22;1427;48.510;9.060;2022-08-01T06:04:25;20.50;99.90
2839;DHT22;1427;48.510;9.060;2022-08-01T06:06:53;20.30;99.90
2839;DHT22;1427;48.510;9.060;2022-08-01T06:09:21;20.30;99.90
2839;DHT22;1427;48.510;9.060;2022-08-01T06:11:50;20.10;99.90
2839;DHT22;1427;48.510;9.060;2022-08-01T06:14:18;20.20;99.90
2839;DHT22;1427;48.510;9.060;2022-08-01T06:16:46;20.60;99.90
2839;DHT22;1427;48.510;9.060;2022-08-01T06:19:14;20.90;99.90
2839;DHT22;1427;48.510;9.060;2022-08-01T06:21:42;21.30;99.60
2839;DHT22;1427;48.510;9.060;2022-08-01T06:24:10;21.70;99.00
2839;DHT22;1427;48.510;9.060;2022-08-01T06:26:38;21.90;98.40
2839;DHT22;1427;48.510;9.060;2022-08-01T06:29:08;21.90;98.00
2839;DHT22;1427;48.510;9.060;2022-08-01T06:31:38;21.80;97.70
2839;DHT22;1427;48.510;9.060;2022-08-01T06:34:06;21.80;97.70
2839;DHT22;1427;48.510;9.060;2022-08-01T06:36:34;21.70;97.20
2839;DHT22;1427;48.510;9.060;2022-08-01T06:39:02;21.60;97.50
2839;DHT22;1427;48.510;9.060;2022-08-01T06:41:30;21.50;97.50
2839;DHT22;1427;48.510;9.060;2022-08-01T06:43:58;21.50;97.60
2839;DHT22;1427;48.510;9.060;2022-08-01T06:46:30;21.50;97.90
2839;DHT22;1427;48.510;9.060;2022-08-01T06:49:00;21.40;97.90
2839;DHT22;1427;48.510;9.060;2022-08-01T06:51:29;21.40;97.90
2839;DHT22;1427;48.510;9.060;2022-08-01T06:53:57;21.50;97.80
2839;DHT22;1427;48.510;9.060;2022-08-01T06:56:25;21.60;97.70
2839;DHT22;1427;48.510;9.060;2022-08-01T06:58:53;21.50;98.10
2839;DHT22;1427;48.510;9.060;2022-08-01T07:01:25;21.60;97.80
2839;DHT22;1427;48.510;9.060;2022-08-01T07:03:55;21.60;97.90
2839;DHT22;1427;48.510;9.060;2022-08-01T07:06:24;21.80;97.90
2839;DHT22;1427;48.510;9.060;2022-08-01T07:08:53;22.10;98.20
2839;DHT22;1427;48.510;9.060;2022-08-01T07:11:21;22.50;97.40
2839;DHT22;1427;48.510;9.060;2022-08-01T07:13:50;22.90;96.90
2839;DHT22;1427;48.510;9.060;2022-08-01T07:16:18;23.10;96.20
2839;DHT22;1427;48.510;9.060;2022-08-01T07:18:46;23.40;95.70
2839;DHT22;1427;48.510;9.060;2022-08-01T07:21:15;23.50;95.20
2839;DHT22;1427;48.510;9.060;2022-08-01T07:24:04;23.50;95.30
2839;DHT22;1427;48.510;9.060;2022-08-01T07:26:39;23.60;95.30
2839;DHT22;1427;48.510;9.060;2022-08-01T07:29:20;23.90;95.20
2839;DHT22;1427;48.510;9.060;2022-08-01T07:31:48;24.30;94.60
2839;DHT22;1427;48.510;9.060;2022-08-01T07:34:16;24.50;94.20
2839;DHT22;1427;48.510;9.060;2022-08-01T07:36:46;24.60;94.10
2839;DHT22;1427;48.510;9.060;2022-08-01T07:39:14;24.80;94.00
2839;DHT22;1427;48.510;9.060;2022-08-01T07:41:42;25.00;94.30
2839;DHT22;1427;48.510;9.060;2022-08-01T07:44:30;25.30;93.90
2839;DHT22;1427;48.510;9.060;2022-08-01T07:46:59;25.50;93.60
2839;DHT22;1427;48.510;9.060;2022-08-01T07:49:27;25.50;93.50
2839;DHT22;1427;48.510;9.060;2022-08-01T07:51:56;25.40;93.50
2839;DHT22;1427;48.510;9.060;2022-08-01T07:54:30;25.40;93.60
2839;DHT22;1427;48.510;9.060;2022-08-01T07:56:59;25.50;93.20
2839;DHT22;1427;48.510;9.060;2022-08-01T07:59:28;25.60;93.00
2839;DHT22;1427;48.510;9.060;2022-08-01T08:01:56;25.70;93.00
2839;DHT22;1427;48.510;9.060;2022-08-01T08:04:24;25.80;93.10
2839;DHT22;1427;48.510;9.060;2022-08-01T08:06:52;25.90;93.30
2839;DHT22;1427;48.510;9.060;2022-08-01T08:09:22;26.20;92.90
2839;DHT22;1427;48.510;9.060;2022-08-01T08:11:50;26.60;92.50
2839;DHT22;1427;48.510;9.060;2022-08-01T08:14:18;27.00;92.10
2839;DHT22;1427;48.510;9.060;2022-08-01T08:16:58;27.20;91.10
2839;DHT22;1427;48.510;9.060;2022-08-01T08:19:28;26.90;90.80
2839;DHT22;1427;48.510;9.060;2022-08-01T08:22:05;26.80;91.00
2839;DHT22;1427;48.510;9.060;2022-08-01T08:24:35;27.00;91.40
2839;DHT22;1427;48.510;9.060;2022-08-01T08:27:12;27.30;90.70
2839;DHT22;1427;48.510;9.060;2022-08-01T08:29:41;27.30;90.60
2839;DHT22;1427;48.510;9.060;2022-08-01T08:32:10;27.20;90.40
2839;DHT22;1427;48.510;9.060;2022-08-01T08:34:39;27.10;90.70
2839;DHT22;1427;48.510;9.060;2022-08-01T08:37:08;27.10;90.90
2839;DHT22;1427;48.510;9.060;2022-08-01T08:39:38;27.50;91.10
2839;DHT22;1427;48.510;9.060;2022-08-01T08:42:08;27.90;89.60
2839;DHT22;1427;48.510;9.060;2022-08-01T08:44:37;27.70;89.60
2839;DHT22;1427;48.510;9.060;2022-08-01T08:47:11;27.60;89.90
2839;DHT22;1427;48.510;9.060;2022-08-01T08:49:46;27.90;88.70
2839;DHT22;1427;48.510;9.060;2022-08-01T08:52:15;28.20;90.10
2839;DHT22;1427;48.510;9.060;2022-08-01T08:54:47;28.40;88.60
2839;DHT22;1427;48.510;9.060;2022-08-01T08:57:16;28.20;87.80
2839;DHT22;1427;48.510;9.060;2022-08-01T08:59:46;27.60;88.40
2839;DHT22;1427;48.510;9.060;2022-08-01T09:02:14;27.20;89.70
2839;DHT22;1427;48.510;9.060;2022-08-01T09:04:43;27.40;90.00
2839;DHT22;1427;48.510;9.060;2022-08-01T09:07:11;27.70;89.60
2839;DHT22;1427;48.510;9.060;2022-08-01T09:09:40;27.90;88.00
2839;DHT22;1427;48.510;9.060;2022-08-01T09:12:11;28.00;90.20
2839;DHT22;1427;48.510;9.060;2022-08-01T09:14:44;28.10;90.20
2839;DHT22;1427;48.510;9.060;2022-08-01T09:17:13;28.30;87.90
2839;DHT22;1427;48.510;9.060;2022-08-01T09:19:44;28.30;87.40
2839;DHT22;1427;48.510;9.060;2022-08-01T09:22:16;28.40;86.40
2839;DHT22;1427;48.510;9.060;2022-08-01T09:24:58;28.60;87.00
2839;DHT22;1427;48.510;9.060;2022-08-01T09:27:28;28.50;86.00
2839;DHT22;1427;48.510;9.060;2022-08-01T09:30:08;28.30;86.50
2839;DHT22;1427;48.510;9.060;2022-08-01T09:32:52;28.40;86.60
2839;DHT22;1427;48.510;9.060;2022-08-01T09:35:25;28.60;85.80
2839;DHT22;1427;48.510;9.060;2022-08-01T09:38:17;28.90;86.00
2839;DHT22;1427;48.510;9.060;2022-08-01T09:40:47;29.10;83.20
2839;DHT22;1427;48.510;9.060;2022-08-01T09:43:17;29.10;84.30
2839;DHT22;1427;48.510;9.060;2022-08-01T09:45:46;29.00;84.80
2839;DHT22;1427;48.510;9.060;2022-08-01T09:48:19;29.10;84.70
2839;DHT22;1427;48.510;9.060;2022-08-01T09:50:57;29.10;83.70
2839;DHT22;1427;48.510;9.060;2022-08-01T09:53:40;29.10;83.60
2839;DHT22;1427;48.510;9.060;2022-08-01T09:56:19;29.30;83.40
2839;DHT22;1427;48.510;9.060;2022-08-01T09:58:53;29.20;82.90
2839;DHT22;1427;48.510;9.060;2022-08-01T10:01:41;29.00;82.20
2839;DHT22;1427;48.510;9.060;2022-08-01T10:04:11;29.10;82.70
2839;DHT22;1427;48.510;9.060;2022-08-01T10:06:42;29.20;83.30
2839;DHT22;1427;48.510;9.060;2022-08-01T10:09:14;29.30;81.80
2839;DHT22;1427;48.510;9.060;2022-08-01T10:11:42;29.50;82.80
2839;DHT22;1427;48.510;9.060;2022-08-01T10:14:12;29.70;81.90
2839;DHT22;1427;48.510;9.060;2022-08-01T10:16:45;29.60;81.10
2839;DHT22;1427;48.510;9.060;2022-08-01T10:19:23;29.70;83.20
2839;DHT22;1427;48.510;9.060;2022-08-01T10:21:55;29.90;80.80
2839;DHT22;1427;48.510;9.060;2022-08-01T10:24:28;30.00;80.20
2839;DHT22;1427;48.510;9.060;2022-08-01T10:27:02;29.70;80.50
2839;DHT22;1427;48.510;9.060;2022-08-01T10:29:41;29.50;80.30
2839;DHT22;1427;48.510;9.060;2022-08-01T10:32:24;29.40;81.00
2839;DHT22;1427;48.510;9.060;2022-08-01T10:34:55;29.10;80.10
2839;DHT22;1427;48.510;9.060;2022-08-01T10:37:24;29.00;80.20
2839;DHT22;1427;48.510;9.060;2022-08-01T10:39:54;28.80;81.60
2839;DHT22;1427;48.510;9.060;2022-08-01T10:42:43;28.80;81.90
2839;DHT22;1427;48.510;9.060;2022-08-01T10:45:15;28.50;81.90
2839;DHT22;1427;48.510;9.060;2022-08-01T10:47:48;28.40;83.50
2839;DHT22;1427;48.510;9.060;2022-08-01T10:50:23;28.60;86.50
2839;DHT22;1427;48.510;9.060;2022-08-01T10:53:13;29.00;84.10
2839;DHT22;1427;48.510;9.060;2022-08-01T10:56:01;29.10;82.60
2839;DHT22;1427;48.510;9.060;2022-08-01T10:58:31;29.00;82.40
2839;DHT22;1427;48.510;9.060;2022-08-01T11:01:22;28.90;82.50
2839;DHT22;1427;48.510;9.060;2022-08-01T11:04:13;28.70;82.50
2839;DHT22;1427;48.510;9.060;2022-08-01T11:06:50;28.70;82.00
2839;DHT22;1427;48.510;9.060;2022-08-01T11:09:26;28.70;83.30
2839;DHT22;1427;48.510;9.060;2022-08-01T11:12:06;28.60;83.10
2839;DHT22;1427;48.510;9.060;2022-08-01T11:15:19;28.40;82.80
2839;DHT22;1427;48.510;9.060;2022-08-01T11:17:58;28.40;83.20
2839;DHT22;1427;48.510;9.060;2022-08-01T11:20:29;28.40;82.50
2839;DHT22;1427;48.510;9.060;2022-08-01T11:23:28;28.30;82.10
2839;DHT22;1427;48.510;9.060;2022-08-01T11:26:20;28.30;82.50
2839;DHT22;1427;48.510;9.060;2022-08-01T11:29:14;28.30;82.70
2839;DHT22;1427;48.510;9.060;2022-08-01T11:31:48;28.30;84.20
2839;DHT22;1427;48.510;9.060;2022-08-01T11:34:18;28.30;82.50
2839;DHT22;1427;48.510;9.060;2022-08-01T11:36:47;28.30;82.70
2839;DHT22;1427;48.510;9.060;2022-08-01T11:39:25;28.40;83.40
2839;DHT22;1427;48.510;9.060;2022-08-01T11:41:55;28.40;84.90
2839;DHT22;1427;48.510;9.060;2022-08-01T11:44:48;28.40;85.10
2839;DHT22;1427;48.510;9.060;2022-08-01T11:47:18;28.30;84.30
2839;DHT22;1427;48.510;9.060;2022-08-01T11:49:49;28.20;84.60
2839;DHT22;1427;48.510;9.060;2022-08-01T11:52:27;28.20;84.80
2839;DHT22;1427;48.510;9.060;2022-08-01T11:54:57;28.10;85.20
2839;DHT22;1427;48.510;9.060;2022-08-01T11:57:28;28.00;84.90
2839;DHT22;1427;48.510;9.060;2022-08-01T12:00:04;28.00;85.20
2839;DHT22;1427;48.510;9.060;2022-08-01T12:02:34;28.10;85.40
2839;DHT22;1427;48.510;9.060;2022-08-01T12:05:05;28.10;85.30
2839;DHT22;1427;48.510;9.060;2022-08-01T12:07:38;28.10;85.20
2839;DHT22;1427;48.510;9.060;2022-08-01T12:10:08;28.10;85.10
2839;DHT22;1427;48.510;9.060;2022-08-01T12:12:41;28.20;84.60
2839;DHT22;1427;48.510;9.060;2022-08-01T12:15:11;28.40;86.00
2839;DHT22;1427;48.510;9.060;2022-08-01T12:17:40;28.70;84.60
2839;DHT22;1427;48.510;9.060;2022-08-01T12:20:25;29.20;84.60
2839;DHT22;1427;48.510;9.060;2022-08-01T12:22:57;29.80;84.40
2839;DHT22;1427;48.510;9.060;2022-08-01T12:25:25;30.10;83.60
2839;DHT22;1427;48.510;9.060;2022-08-01T12:27:53;30.30;80.40
2839;DHT22;1427;48.510;9.060;2022-08-01T12:30:24;30.10;81.60
2839;DHT22;1427;48.510;9.060;2022-08-01T12:32:53;30.10;80.40
2839;DHT22;1427;48.510;9.060;2022-08-01T12:35:25;29.70;80.80
2839;DHT22;1427;48.510;9.060;2022-08-01T12:37:55;29.80;83.10
2839;DHT22;1427;48.510;9.060;2022-08-01T12:40:24;30.10;82.80
2839;DHT22;1427;48.510;9.060;2022-08-01T12:42:54;30.50;80.80
2839;DHT22;1427;48.510;9.060;2022-08-01T12:45:25;30.80;81.70
2839;DHT22;1427;48.510;9.060;2022-08-01T12:47:54;31.10;81.60
2839;DHT22;1427;48.510;9.060;2022-08-01T12:50:27;31.10;78.50
2839;DHT22;1427;48.510;9.060;2022-08-01T12:52:56;30.90;78.40
2839;DHT22;1427;48.510;9.060;2022-08-01T12:55:25;30.90;80.30
2839;DHT22;1427;48.510;9.060;2022-08-01T12:58:05;31.10;80.90
2839;DHT22;1427;48.510;9.060;2022-08-01T13:00:40;31.30;78.80
2839;DHT22;1427;48.510;9.060;2022-08-01T13:03:13;31.40;79.90
2839;DHT22;1427;48.510;9.060;2022-08-01T13:05:45;31.50;77.80
2839;DHT22;1427;48.510;9.060;2022-08-01T13:08:14;31.20;78.30
2839;DHT22;1427;48.510;9.060;2022-08-01T13:10:43;31.10;79.80
2839;DHT22;1427;48.510;9.060;2022-08-01T13:13:13;30.80;79.70
2839;DHT22;1427;48.510;9.060;2022-08-01T13:16:03;30.70;80.90
2839;DHT22;1427;48.510;9.060;2022-08-01T13:18:33;31.00;78.70
2839;DHT22;1427;48.510;9.060;2022-08-01T13:21:10;31.00;78.70
2839;DHT22;1427;48.510;9.060;2022-08-01T13:23:39;30.30;79.60
2839;DHT22;1427;48.510;9.060;2022-08-01T13:26:40;30.20;80.00
2839;DHT22;1427;48.510;9.060;2022-08-01T13:29:10;30.00;80.40
2839;DHT22;1427;48.510;9.060;2022-08-01T13:31:40;30.20;80.20
2839;DHT22;1427;48.510;9.060;2022-08-01T13:34:08;30.50;79.60
2839;DHT22;1427;48.510;9.060;2022-08-01T13:36:39;30.60;78.60
2839;DHT22;1427;48.510;9.060;2022-08-01T13:39:14;30.80;80.30
2839;DHT22;1427;48.510;9.060;2022-08-01T13:42:00;31.10;78.90
2839;DHT22;1427;48.510;9.060;2022-08-01T13:44:29;31.30;80.10
2839;DHT22;1427;48.510;9.060;2022-08-01T13:46:57;31.60;78.20
2839;DHT22;1427;48.510;9.060;2022-08-01T13:49:26;31.80;77.60
2839;DHT22;1427;48.510;9.060;2022-08-01T13:52:05;31.90;76.40
2839;DHT22;1427;48.510;9.060;2022-08-01T13:54:34;31.90;75.20
2839;DHT22;1427;48.510;9.060;2022-08-01T13:57:03;31.70;76.60
2839;DHT22;1427;48.510;9.060;2022-08-01T13:59:31;31.70;76.40
2839;DHT22;1427;48.510;9.060;2022-08-01T14:01:59;31.80;77.30
2839;DHT22;1427;48.510;9.060;2022-08-01T14:04:27;31.60;77.00
2839;DHT22;1427;48.510;9.060;2022-08-01T14:06:55;31.40;77.20
2839;DHT22;1427;48.510;9.060;2022-08-01T14:09:26;31.20;78.50
2839;DHT22;1427;48.510;9.060;2022-08-01T14:11:58;31.00;78.30
2839;DHT22;1427;48.510;9.060;2022-08-01T14:14:26;30.70;77.10
2839;DHT22;1427;48.510;9.060;2022-08-01T14:16:54;30.50;78.80
2839;DHT22;1427;48.510;9.060;2022-08-01T14:19:22;30.40;78.10
2839;DHT22;1427;48.510;9.060;2022-08-01T14:22:05;30.20;78.60
2839;DHT22;1427;48.510;9.060;2022-08-01T14:24:35;30.10;80.10
2839;DHT22;1427;48.510;9.060;2022-08-01T14:27:06;29.90;80.50
2839;DHT22;1427;48.510;9.060;2022-08-01T14:29:35;29.90;80.60
2839;DHT22;1427;48.510;9.060;2022-08-01T14:32:23;29.80;80.30
2839;DHT22;1427;48.510;9.060;2022-08-01T14:34:54;29.90;79.00
2839;DHT22;1427;48.510;9.060;2022-08-01T14:37:23;29.80;80.00
2839;DHT22;1427;48.510;9.060;2022-08-01T14:39:59;29.90;81.70
2839;DHT22;1427;48.510;9.060;2022-08-01T14:42:33;29.90;82.90
2839;DHT22;1427;48.510;9.060;2022-08-01T14:45:02;29.90;82.20
2839;DHT22;1427;48.510;9.060;2022-08-01T14:47:30;29.90;82.00
2839;DHT22;1427;48.510;9.060;2022-08-01T14:49:58;29.80;83.30
2839;DHT22;1427;48.510;9.060;2022-08-01T14:52:26;29.80;83.00
2839;DHT22;1427;48.510;9.060;2022-08-01T14:54:54;29.60;82.20
2839;DHT22;1427;48.510;9.060;2022-08-01T14:57:24;29.50;82.90
2839;DHT22;1427;48.510;9.060;2022-08-01T14:59:52;29.50;81.30
2839;DHT22;1427;48.510;9.060;2022-08-01T15:02:20;29.40;81.30
2839;DHT22;1427;48.510;9.060;2022-08-01T15:04:49;29.40;81.80
2839;DHT22;1427;48.510;9.060;2022-08-01T15:07:18;29.50;81.90
2839;DHT22;1427;48.510;9.060;2022-08-01T15:09:46;29.50;82.90
2839;DHT22;1427;48.510;9.060;2022-08-01T15:12:14;29.20;84.20
2839;DHT22;1427;48.510;9.060;2022-08-01T15:14:43;29.30;86.10
2839;DHT22;1427;48.510;9.060;2022-08-01T15:17:18;29.40;85.10
2839;DHT22;1427;48.510;9.060;2022-08-01T15:19:50;29.20;85.30
2839;DHT22;1427;48.510;9.060;2022-08-01T15:22:19;28.90;86.30
2839;DHT22;1427;48.510;9.060;2022-08-01T15:24:49;28.80;86.30
2839;DHT22;1427;48.510;9.060;2022-08-01T15:27:23;28.50;85.20
2839;DHT22;1427;48.510;9.060;2022-08-01T15:29:53;28.20;85.30
2839;DHT22;1427;48.510;9.060;2022-08-01T15:32:21;28.00;87.20
2839;DHT22;1427;48.510;9.060;2022-08-01T15:34:50;27.90;87.00
2839;DHT22;1427;48.510;9.060;2022-08-01T15:37:18;27.90;87.50
2839;DHT22;1427;48.510;9.060;2022-08-01T15:39:46;27.60;89.60
2839;DHT22;1427;48.510;9.060;2022-08-01T15:42:15;27.50;90.00
2839;DHT22;1427;48.510;9.060;2022-08-01T15:44:49;27.10;90.10
2839;DHT22;1427;48.510;9.060;2022-08-01T15:47:18;27.00;90.20
2839;DHT22;1427;48.510;9.060;2022-08-01T15:49:48;26.90;89.80
2839;DHT22;1427;48.510;9.060;2022-08-01T15:52:18;27.00;89.50
2839;DHT22;1427;48.510;9.060;2022-08-01T15:54:56;26.60;90.50
2839;DHT22;1427;48.510;9.060;2022-08-01T15:57:24;26.60;90.80
2839;DHT22;1427;48.510;9.060;2022-08-01T15:59:52;26.70;90.70
2839;DHT22;1427;48.510;9.060;2022-08-01T16:02:21;26.90;90.80
2839;DHT22;1427;48.510;9.060;2022-08-01T16:04:49;27.10;90.80
2839;DHT22;1427;48.510;9.060;2022-08-01T16:07:18;27.10;90.90
2839;DHT22;1427;48.510;9.060;2022-08-01T16:09:46;27.10;90.80
2839;DHT22;1427;48.510;9.060;2022-08-01T16:12:14;27.20;90.70
2839;DHT22;1427;48.510;9.060;2022-08-01T16:14:42;27.20;90.80
2839;DHT22;1427;48.510;9.060;2022-08-01T16:17:10;27.20;90.50
2839;DHT22;1427;48.510;9.060;2022-08-01T16:19:39;27.10;90.40
2839;DHT22;1427;48.510;9.060;2022-08-01T16:22:07;27.10;90.50
2839;DHT22;1427;48.510;9.060;2022-08-01T16:24:36;27.10;90.80
2839;DHT22;1427;48.510;9.060;2022-08-01T16:27:04;26.90;91.00
2839;DHT22;1427;48.510;9.060;2022-08-01T16:29:32;26.90;91.20
2839;DHT22;1427;48.510;9.060;2022-08-01T16:32:01;26.90;91.20